Airfield :
LOGIN :

Register | Disclaimer

   EN    FR    IT 

 










Legend :    VFR   Marginal VFR   IFR   Intensive IFR   Very Intensive IFR
Visi :
Ceiling :
>= 8 km
>= 3000ft
5 to 8 km
1000 to 3000 ft
1500m to 5 km
500 to 1000 ft
800 to 1500m
200 to 500 ft
< 800m
< 200 ft
Symbols :   Thunderstorms  Fog  Heavy snow  Heavy precipitations  Wind > 20 kt
SIGMETs :     Misc.  Thunderstorms  Icing  Turbulence  Mountain Waves  Volcanic Ashes







- Airport Elevation : 681 ft
- IATA code : LBA
- Download approach charts


EGNM - Leeds Bradford

CURRENT METAR :
  • 171920Z 27019KT 9999 FEW019 06/02 Q1022

EXPIRED METARs :
  • 171850Z 27016KT 190V290 9999 FEW017 05/02 Q1023
  • 171820Z 27015KT 190V350 9999 FEW016 06/02 Q1023
  • 171750Z 27014KT 9999 FEW016 06/02 Q1023
  • 171720Z 27011KT 9999 FEW016 06/02 Q1024
  • 171650Z 26005KT 170V350 9999 FEW018 06/02 Q1024

TAF TAF EGNM
Valid from the 17 at 18:00 until the 18 at 18:00 UTC


171706Z 1718/1818 27012KT 9999 FEW018 SCT030
TEMPO 1718/1806 28020G30KT
PROB30
TEMPO 1718/1802 9000 -SHRA
TEMPO 1802/1810 7000 SHRA BKN012
ATIS : +44 113 250 9696 (x2489)
No reported NOTAMs for that airfield.



MET'MAP, your aeronautical weather chart ! - Copyright ORBIFLY December 2007 - Disclaimer

ORBIFLY MET'MAP TEAM :

Programming & Development : Alexandra Zaïnal
Concept & Development : Baudouin d'Aumeries
Co-Development & Prog : Marc-Olivier Méhu
Technical & hardware support : Manuel Goepfert

Contact : metmap@orbifly.com




SOURCES & CREDITS :

   NOAA